createdAt,value
2022-09-07T00:01:06.002Z,101044.09
2022-09-07T00:03:32.401Z,101038.09
2022-09-07T00:05:58.713Z,101047.88
2022-09-07T00:08:25.166Z,101056.25
2022-09-07T00:10:51.657Z,101050.84
2022-09-07T00:13:17.974Z,101050.03
2022-09-07T00:15:44.340Z,101051.09
2022-09-07T00:18:10.685Z,101051.09
2022-09-07T00:20:37.085Z,101051.09
2022-09-07T00:23:03.657Z,101050.28
2022-09-07T00:25:32.043Z,101048.38
2022-09-07T00:27:59.240Z,101037.53
2022-09-07T00:30:25.570Z,101035.09
2022-09-07T00:32:51.919Z,101039.44
2022-09-07T00:35:18.313Z,101031.53
2022-09-07T00:37:44.663Z,101035.09
2022-09-07T00:40:11.233Z,101026.94
2022-09-07T00:42:37.645Z,101026.94
2022-09-07T00:45:03.949Z,101026.94
2022-09-07T00:47:30.259Z,101023.66
2022-09-07T00:49:56.748Z,101015.25
2022-09-07T00:52:23.086Z,101017.41
2022-09-07T00:54:49.761Z,101016.59
2022-09-07T00:57:16.261Z,101028.84
2022-09-07T00:59:42.564Z,101029.09
2022-09-07T01:02:09.995Z,101027.47
2022-09-07T01:04:36.759Z,101024.50
2022-09-07T01:07:03.504Z,101019.06
2022-09-07T01:09:30.068Z,101016.59
2022-09-07T01:11:56.602Z,101018.50
2022-09-07T01:14:23.070Z,101025.00
2022-09-07T01:16:50.365Z,101035.03
2022-09-07T01:19:17.073Z,101037.75
2022-09-07T01:21:43.707Z,101038.56
2022-09-07T01:24:10.147Z,101030.94
2022-09-07T01:26:36.640Z,101029.84
2022-09-07T01:29:03.081Z,101036.94
2022-09-07T01:31:29.549Z,101032.56
2022-09-07T01:33:55.841Z,101028.81
2022-09-07T01:36:22.388Z,101023.63
2022-09-07T01:38:48.884Z,101015.75
2022-09-07T01:41:15.298Z,101026.34
2022-09-07T01:43:41.990Z,101013.84
2022-09-07T01:46:08.351Z,101015.75
2022-09-07T01:48:34.699Z,101028.22
2022-09-07T01:51:01.136Z,101019.28
2022-09-07T01:53:27.446Z,101011.94
2022-09-07T01:55:53.805Z,101013.03
2022-09-07T01:58:20.119Z,101014.13
2022-09-07T02:00:46.540Z,101016.00
2022-09-07T02:03:13.184Z,101012.19
2022-09-07T02:05:39.473Z,101015.19
2022-09-07T02:08:05.811Z,101015.19
2022-09-07T02:10:32.274Z,101015.19
2022-09-07T02:12:58.578Z,101008.66
2022-09-07T02:15:25.066Z,101007.31
2022-09-07T02:17:51.347Z,101006.47
2022-09-07T02:20:17.878Z,101002.69
2022-09-07T02:22:44.230Z,101002.69
2022-09-07T02:25:10.586Z,100989.38
2022-09-07T02:27:36.928Z,100991.53
2022-09-07T02:30:03.240Z,100993.16
2022-09-07T02:32:29.576Z,100977.97
2022-09-07T02:34:55.948Z,100973.91
2022-09-07T02:37:22.429Z,100975.50
2022-09-07T02:39:48.860Z,100977.16
2022-09-07T02:42:15.425Z,100980.94
2022-09-07T02:44:41.861Z,100976.34
2022-09-07T02:47:08.139Z,100976.59
2022-09-07T02:49:34.777Z,100966.28
2022-09-07T02:52:01.233Z,100961.13
2022-09-07T02:54:27.807Z,100960.56
2022-09-07T02:56:54.777Z,100953.25
2022-09-07T02:59:21.101Z,100944.03
2022-09-07T03:01:47.528Z,100945.38
2022-09-07T03:04:14.083Z,100939.94
2022-09-07T03:06:40.405Z,100944.53
2022-09-07T03:09:06.955Z,100951.91
2022-09-07T03:11:34.669Z,100957.31
2022-09-07T03:14:01.193Z,100961.66
2022-09-07T03:16:27.755Z,100961.91
2022-09-07T03:18:54.152Z,100965.72
2022-09-07T03:21:20.500Z,100976.31
2022-09-07T03:23:51.170Z,100966.53
2022-09-07T03:26:18.174Z,100975.50
2022-09-07T03:28:44.621Z,100967.59
2022-09-07T03:31:10.997Z,100964.63
2022-09-07T03:33:37.368Z,100972.78
2022-09-07T03:36:03.821Z,100968.44
2022-09-07T03:38:30.202Z,100965.72
2022-09-07T03:40:56.641Z,100971.41
2022-09-07T03:43:23.044Z,100964.06
2022-09-07T03:45:49.640Z,100963.25
2022-09-07T03:48:15.984Z,100969.50
2022-09-07T03:50:42.297Z,100966.78
2022-09-07T03:53:08.828Z,100967.06
2022-09-07T03:55:35.184Z,100967.06
2022-09-07T03:58:01.562Z,100959.19
2022-09-07T04:00:27.973Z,100960.81
2022-09-07T04:02:54.430Z,100958.09
2022-09-07T04:05:20.837Z,100964.59
2022-09-07T04:07:47.111Z,100964.59
2022-09-07T04:10:13.749Z,100965.16
2022-09-07T04:12:40.194Z,100968.94
2022-09-07T04:15:06.597Z,100973.84
2022-09-07T04:17:32.949Z,100967.88
2022-09-07T04:19:59.361Z,100968.41
2022-09-07T04:22:25.728Z,100970.28
2022-09-07T04:24:52.089Z,100981.97
2022-09-07T04:27:18.594Z,100977.34
2022-09-07T04:29:45.092Z,100968.94
2022-09-07T04:32:15.643Z,100970.28
2022-09-07T04:34:42.414Z,100967.31
2022-09-07T04:37:08.893Z,100960.25
2022-09-07T04:39:35.373Z,100958.59
2022-09-07T04:42:01.822Z,100958.34
2022-09-07T04:44:28.099Z,100955.91
2022-09-07T04:46:54.766Z,100957.56
2022-09-07T04:49:21.124Z,100954.00
2022-09-07T04:51:47.388Z,100954.84
2022-09-07T04:54:13.725Z,100947.75
2022-09-07T04:56:40.404Z,100947.22
2022-09-07T04:59:06.738Z,100952.63
2022-09-07T05:01:33.311Z,100943.66
2022-09-07T05:03:59.837Z,100950.19
2022-09-07T05:06:26.177Z,100943.94
2022-09-07T05:08:52.468Z,100953.72
2022-09-07T05:11:18.848Z,100952.06
2022-09-07T05:13:45.744Z,100955.88
2022-09-07T05:16:12.159Z,100945.00
2022-09-07T05:18:38.528Z,100950.19
2022-09-07T05:21:05.828Z,100952.06
2022-09-07T05:23:32.192Z,100950.44
2022-09-07T05:25:58.538Z,100951.28
2022-09-07T05:28:25.024Z,100954.53
2022-09-07T05:36:24.377Z,100949.59
2022-09-07T05:38:50.873Z,100956.03
2022-09-07T05:41:17.467Z,100950.69
2022-09-07T05:46:30.306Z,100959.38
2022-09-07T05:48:56.821Z,100954.75
2022-09-07T05:51:23.366Z,100947.44
2022-09-07T05:53:50.183Z,100953.66
2022-09-07T05:56:16.760Z,100948.25
2022-09-07T05:58:43.457Z,100961.56
2022-09-07T06:01:09.843Z,100954.25
2022-09-07T06:03:36.512Z,100958.03
2022-09-07T06:06:02.806Z,100963.47
2022-09-07T06:08:29.432Z,100965.09
2022-09-07T06:10:56.097Z,100954.25
2022-09-07T06:13:22.509Z,100960.75
2022-09-07T06:15:49.037Z,100953.41
2022-09-07T06:18:15.748Z,100950.94
2022-09-07T06:20:42.087Z,100953.41
2022-09-07T06:23:08.812Z,100951.78
2022-09-07T06:25:35.266Z,100946.09
2022-09-07T06:28:01.760Z,100946.09
2022-09-07T06:30:28.262Z,100944.47
2022-09-07T06:32:54.640Z,100945.00
2022-09-07T06:35:21.977Z,100952.06
2022-09-07T06:37:48.388Z,100942.31
2022-09-07T06:40:14.800Z,100950.19
2022-09-07T06:42:41.327Z,100936.34
2022-09-07T06:45:08.202Z,100935.84
2022-09-07T06:47:34.748Z,100929.31
2022-09-07T06:50:01.060Z,100937.94
2022-09-07T06:52:28.232Z,100927.56
2022-09-07T06:57:23.819Z,100925.84
2022-09-07T06:59:50.166Z,100916.72
2022-09-07T07:02:16.744Z,100917.00
2022-09-07T07:04:43.124Z,100917.84
2022-09-07T07:07:09.562Z,100914.88
2022-09-07T07:09:36.396Z,100925.47
2022-09-07T07:12:02.773Z,100922.75
2022-09-07T07:14:33.724Z,100925.47
2022-09-07T07:17:01.646Z,100926.63
2022-09-07T07:19:27.977Z,100926.53
2022-09-07T07:24:40.834Z,100925.94
2022-09-07T07:27:07.482Z,100937.63
2022-09-07T07:29:33.786Z,100941.94
2022-09-07T07:32:00.108Z,100929.44
2022-09-07T07:34:26.726Z,100924.84
2022-09-07T07:36:53.097Z,100918.84
2022-09-07T07:42:06.378Z,100921.34
2022-09-07T07:44:32.766Z,100919.44
2022-09-07T07:46:59.157Z,100920.00
2022-09-07T07:49:25.558Z,100918.94
2022-09-07T07:54:38.145Z,100908.09
2022-09-07T07:57:04.790Z,100921.41
2022-09-07T07:59:31.502Z,100926.00
2022-09-07T08:01:57.918Z,100923.28
2022-09-07T08:04:24.336Z,100906.75
2022-09-07T08:06:50.729Z,100912.16
2022-09-07T08:09:17.153Z,100911.34
2022-09-07T08:11:43.835Z,100912.44
2022-09-07T08:14:10.068Z,100914.88
2022-09-07T08:16:36.440Z,100908.38
2022-09-07T08:19:02.831Z,100920.06
2022-09-07T08:21:29.200Z,100920.06
2022-09-07T08:23:55.483Z,100916.50
2022-09-07T08:26:21.984Z,100926.28
2022-09-07T08:28:48.272Z,100924.38
2022-09-07T08:31:14.679Z,100916.25
2022-09-07T08:33:41.081Z,100911.38
2022-09-07T08:36:07.430Z,100916.25
2022-09-07T08:38:33.758Z,100913.28
2022-09-07T08:41:00.019Z,100912.44
2022-09-07T08:43:26.485Z,100905.13
2022-09-07T08:45:52.810Z,100905.94
2022-09-07T08:48:19.163Z,100904.31
2022-09-07T08:50:45.551Z,100903.22
2022-09-07T08:53:11.890Z,100908.66
2022-09-07T08:55:38.304Z,100913.03
2022-09-07T08:58:04.644Z,100899.47
2022-09-07T09:00:31.085Z,100897.53
2022-09-07T09:05:43.758Z,100898.91
2022-09-07T09:08:10.328Z,100893.47
2022-09-07T09:10:36.750Z,100889.97
2022-09-07T09:13:03.033Z,100888.06
2022-09-07T09:15:29.322Z,100881.84
2022-09-07T09:17:55.638Z,100883.47
2022-09-07T09:20:22.105Z,100876.16
2022-09-07T09:22:48.544Z,100887.00
2022-09-07T09:25:14.993Z,100887.00
2022-09-07T09:27:41.353Z,100889.41
2022-09-07T09:30:07.783Z,100887.00
2022-09-07T09:32:34.189Z,100880.47
2022-09-07T09:35:00.574Z,100868.00
2022-09-07T09:37:26.986Z,100873.44
2022-09-07T09:39:55.447Z,100872.34
2022-09-07T09:42:24.421Z,100865.81
2022-09-07T09:44:51.693Z,100866.09
2022-09-07T09:47:33.455Z,100863.38
2022-09-07T09:49:59.930Z,100858.78
2022-09-07T09:52:29.900Z,100863.13
2022-09-07T09:55:03.414Z,100856.06
2022-09-07T09:57:39.246Z,100851.44
2022-09-07T10:00:10.957Z,100844.94
2022-09-07T10:05:26.401Z,100845.75
2022-09-07T10:07:52.938Z,100851.16
2022-09-07T10:10:19.250Z,100852.25
2022-09-07T10:12:45.877Z,100849.28
2022-09-07T10:15:12.415Z,100846.31
2022-09-07T10:17:39.719Z,100844.94
2022-09-07T10:20:06.209Z,100851.16
2022-09-07T10:22:32.541Z,100844.94
2022-09-07T10:24:58.905Z,100844.66
2022-09-07T10:27:25.330Z,100844.66
2022-09-07T10:29:51.713Z,100838.16
2022-09-07T10:32:17.998Z,100840.31
2022-09-07T10:34:44.578Z,100836.50
2022-09-07T10:37:11.309Z,100824.88
2022-09-07T10:39:37.688Z,100817.53
2022-09-07T10:42:04.051Z,100825.66
2022-09-07T10:44:30.711Z,100826.50
2022-09-07T10:46:57.727Z,100824.59
2022-09-07T10:49:25.273Z,100824.59
2022-09-07T10:51:52.186Z,100830.03
2022-09-07T10:54:34.329Z,100828.13
2022-09-07T10:57:01.448Z,100821.88
2022-09-07T11:00:07.410Z,100819.97
2022-09-07T11:02:14.256Z,100823.50
2022-09-07T11:04:40.530Z,100818.09
2022-09-07T11:07:06.802Z,100818.09
2022-09-07T11:09:33.080Z,100818.09
2022-09-07T11:12:01.066Z,100812.66
2022-09-07T11:14:27.952Z,100807.22
2022-09-07T11:16:54.356Z,100811.03
2022-09-07T11:19:37.481Z,100803.69
2022-09-07T11:22:04.352Z,100807.22
2022-09-07T11:24:30.701Z,100808.06
2022-09-07T11:26:57.014Z,100810.78
2022-09-07T11:29:30.600Z,100813.50
2022-09-07T11:31:56.975Z,100811.56
2022-09-07T11:34:24.715Z,100808.06
2022-09-07T11:36:51.302Z,100803.44
2022-09-07T11:39:17.601Z,100800.72
2022-09-07T11:41:43.968Z,100812.66
2022-09-07T11:44:10.525Z,100808.84
2022-09-07T11:46:36.948Z,100821.91
2022-09-07T11:50:38.838Z,100819.78
2022-09-07T11:53:05.196Z,100814.88
2022-09-07T11:55:31.684Z,100810.28
2022-09-07T11:57:58.158Z,100808.34
2022-09-07T12:00:24.546Z,100816.50
2022-09-07T12:03:00.277Z,100809.19
2022-09-07T12:05:27.169Z,100808.94
2022-09-07T12:07:53.746Z,100803.22
2022-09-07T12:10:20.226Z,100808.38
2022-09-07T12:12:46.502Z,100806.22
2022-09-07T12:15:12.826Z,100799.69
2022-09-07T12:17:39.112Z,100795.09
2022-09-07T12:20:05.817Z,100798.63
2022-09-07T12:22:32.795Z,100785.03
2022-09-07T12:24:59.104Z,100785.88
2022-09-07T12:27:25.396Z,100782.31
2022-09-07T12:29:51.713Z,100775.84
2022-09-07T12:35:04.397Z,100778.25
2022-09-07T12:37:30.794Z,100769.31
2022-09-07T12:39:57.281Z,100770.09
2022-09-07T12:42:39.257Z,100754.13
2022-09-07T12:45:05.566Z,100755.75
2022-09-07T12:47:31.929Z,100756.53
2022-09-07T12:49:58.339Z,100756.81
2022-09-07T12:52:24.751Z,100753.28
2022-09-07T12:55:10.095Z,100760.34
2022-09-07T12:57:37.418Z,100741.59
2022-09-07T13:00:03.737Z,100746.22
2022-09-07T13:02:30.218Z,100743.53
2022-09-07T13:04:56.566Z,100750.56
2022-09-07T13:07:23.171Z,100746.22
2022-09-07T13:09:49.663Z,100751.66
2022-09-07T13:12:52.961Z,100748.13
2022-09-07T13:15:02.523Z,100734.56
2022-09-07T13:17:28.929Z,100732.94
2022-09-07T13:19:55.314Z,100730.22
2022-09-07T13:22:21.591Z,100726.66
2022-09-07T13:24:48.018Z,100736.72
2022-09-07T13:27:14.970Z,100732.09
2022-09-07T13:29:41.303Z,100730.22
2022-09-07T13:32:08.225Z,100730.22
2022-09-07T13:34:34.534Z,100723.16
2022-09-07T13:37:00.892Z,100718.78
2022-09-07T13:39:27.252Z,100717.72
2022-09-07T13:41:53.761Z,100726.66
2022-09-07T13:44:25.634Z,100713.34
2022-09-07T13:46:52.682Z,100709.59
2022-09-07T13:49:18.978Z,100716.91
2022-09-07T13:51:45.390Z,100714.19
2022-09-07T13:54:11.651Z,100718.00
2022-09-07T13:56:37.913Z,100707.94
2022-09-07T13:59:04.352Z,100707.94
2022-09-07T14:01:30.664Z,100701.72
2022-09-07T14:03:56.979Z,100695.44
2022-09-07T14:06:23.608Z,100697.91
2022-09-07T14:08:50.045Z,100691.66
2022-09-07T14:11:16.400Z,100691.94
2022-09-07T14:13:43.031Z,100694.66
2022-09-07T14:16:09.362Z,100697.06
2022-09-07T14:18:35.781Z,100701.72
2022-09-07T14:21:02.141Z,100696.28
2022-09-07T14:23:29.010Z,100703.59
2022-09-07T14:28:41.868Z,100694.66
2022-09-07T14:31:08.322Z,100687.56
2022-09-07T14:33:34.853Z,100678.38
2022-09-07T14:36:13.097Z,100684.59
2022-09-07T14:41:33.995Z,100679.16
2022-09-07T14:44:00.349Z,100681.88
2022-09-07T14:46:26.965Z,100679.16
2022-09-07T14:48:55.133Z,100669.41
2022-09-07T14:51:32.663Z,100662.88
2022-09-07T14:54:02.199Z,100671.03
2022-09-07T14:56:28.574Z,100667.50
2022-09-07T14:58:55.057Z,100666.69
2022-09-07T15:04:07.710Z,100673.72
2022-09-07T15:09:21.005Z,100669.41
2022-09-07T15:11:47.352Z,100674.81
2022-09-07T15:14:13.874Z,100672.13
2022-09-07T15:16:40.413Z,100673.22
2022-09-07T15:19:06.713Z,100665.06
2022-09-07T15:21:33.019Z,100676.72
2022-09-07T15:23:59.354Z,100667.78
2022-09-07T15:29:12.142Z,100674.81
2022-09-07T15:31:41.706Z,100679.44
2022-09-07T15:34:09.221Z,100675.09
2022-09-07T15:36:35.575Z,100673.22
2022-09-07T15:39:03.304Z,100661.78
2022-09-07T15:41:30.034Z,100652.56
2022-09-07T15:43:56.835Z,100650.66
2022-09-07T15:46:23.411Z,100641.69
2022-09-07T15:48:51.531Z,100638.97
2022-09-07T15:54:12.161Z,100634.13
2022-09-07T15:56:40.004Z,100621.38
2022-09-07T15:59:06.354Z,100635.72
2022-09-07T16:04:19.289Z,100631.41
2022-09-07T16:06:48.308Z,100619.72
2022-09-07T16:09:14.742Z,100625.97
2022-09-07T16:11:41.132Z,100630.56
2022-09-07T16:14:07.476Z,100636.81
2022-09-07T16:19:21.236Z,100624.06
2022-09-07T16:21:48.066Z,100634.13
2022-09-07T16:24:14.413Z,100624.06
2022-09-07T16:26:41.179Z,100620.53
2022-09-07T16:29:08.015Z,100617.00
2022-09-07T16:31:34.713Z,100608.06
2022-09-07T16:34:01.485Z,100610.50
2022-09-07T16:36:27.850Z,100613.22
2022-09-07T16:38:54.237Z,100599.91
2022-09-07T16:41:20.919Z,100598.00
2022-09-07T16:43:47.380Z,100606.97
2022-09-07T16:46:13.795Z,100601.53
2022-09-07T16:48:40.075Z,100603.16
2022-09-07T16:51:06.499Z,100612.91
2022-09-07T16:53:32.716Z,100599.66
2022-09-07T16:55:59.024Z,100607.50
2022-09-07T16:58:40.729Z,100608.59
2022-09-07T17:01:07.211Z,100603.16
2022-09-07T17:03:33.694Z,100615.63
2022-09-07T17:06:00.222Z,100624.34
2022-09-07T17:08:26.620Z,100628.16
2022-09-07T17:10:53.094Z,100628.16
2022-09-07T17:13:19.350Z,100625.44
2022-09-07T17:15:45.630Z,100627.06
2022-09-07T17:18:11.892Z,100631.66
2022-09-07T17:20:38.213Z,100623.50
2022-09-07T17:23:05.522Z,100637.91
2022-09-07T17:25:33.240Z,100649.59
2022-09-07T17:28:00.031Z,100648.78
2022-09-07T17:30:26.976Z,100651.50
2022-09-07T17:32:53.425Z,100646.31
2022-09-07T17:35:19.821Z,100643.34
2022-09-07T17:37:46.255Z,100644.44
2022-09-07T17:40:12.587Z,100643.59
2022-09-07T17:45:27.731Z,100639.00
2022-09-07T17:47:54.556Z,100636.28
2022-09-07T17:50:20.892Z,100640.91
2022-09-07T17:52:52.930Z,100640.91
2022-09-07T17:55:19.655Z,100640.06
2022-09-07T17:57:45.902Z,100650.94
2022-09-07T18:00:12.631Z,100649.88
2022-09-07T18:02:39.317Z,100643.59
2022-09-07T18:05:07.061Z,100637.34
2022-09-07T18:07:34.406Z,100630.31
2022-09-07T18:10:00.734Z,100629.22
2022-09-07T18:12:27.256Z,100637.34
2022-09-07T18:14:53.506Z,100624.88
2022-09-07T18:17:19.838Z,100633.84
2022-09-07T18:19:46.887Z,100631.91
2022-09-07T18:22:13.864Z,100642.00
2022-09-07T18:24:41.562Z,100628.41
2022-09-07T18:27:07.992Z,100642.00
2022-09-07T18:29:34.714Z,100638.44
2022-09-07T18:32:01.472Z,100645.78
2022-09-07T18:34:28.551Z,100650.41
2022-09-07T18:36:55.317Z,100655.56
2022-09-07T18:39:21.896Z,100661.00
2022-09-07T18:41:48.199Z,100658.28
2022-09-07T18:47:01.381Z,100673.72
2022-09-07T18:49:27.689Z,100675.34
2022-09-07T18:54:40.475Z,100683.78
2022-09-07T18:57:07.040Z,100691.94
2022-09-07T18:59:33.566Z,100684.59
2022-09-07T19:02:03.870Z,100677.53
2022-09-07T19:07:18.362Z,100674.81
2022-09-07T19:09:44.739Z,100672.13
2022-09-07T19:12:11.019Z,100676.72
2022-09-07T19:14:37.419Z,100674.00
2022-09-07T19:17:03.754Z,100669.94
2022-09-07T19:19:30.102Z,100665.84
2022-09-07T19:21:57.065Z,100663.97
2022-09-07T19:24:23.346Z,100652.28
2022-09-07T19:26:49.639Z,100647.94
2022-09-07T19:29:15.917Z,100645.22
2022-09-07T19:31:42.440Z,100646.06
2022-09-07T19:34:08.949Z,100646.84
2022-09-07T19:36:35.419Z,100651.50
2022-09-07T19:39:01.673Z,100644.41
2022-09-07T19:41:27.977Z,100638.97
2022-09-07T19:43:54.570Z,100637.91
2022-09-07T19:46:24.800Z,100637.09
2022-09-07T19:48:51.340Z,100632.75
2022-09-07T19:51:17.724Z,100636.25
2022-09-07T19:53:44.271Z,100636.25
2022-09-07T19:56:10.721Z,100621.06
2022-09-07T19:58:37.077Z,100616.47
2022-09-07T20:01:03.755Z,100619.19
2022-09-07T20:03:30.240Z,100616.47
2022-09-07T20:05:56.884Z,100628.94
2022-09-07T20:08:23.296Z,100625.72
2022-09-07T20:10:49.724Z,100628.13
2022-09-07T20:13:16.050Z,100625.41
2022-09-07T20:15:42.370Z,100618.34
2022-09-07T20:18:08.733Z,100617.56
2022-09-07T20:20:35.014Z,100614.03
2022-09-07T20:23:01.348Z,100609.41
2022-09-07T20:25:28.008Z,100612.94
2022-09-07T20:27:54.442Z,100610.22
2022-09-07T20:30:20.822Z,100604.78
2022-09-07T20:32:47.478Z,100607.50
2022-09-07T20:35:13.821Z,100600.44
2022-09-07T20:37:40.374Z,100610.47
2022-09-07T20:40:06.705Z,100612.13
2022-09-07T20:42:33.101Z,100614.03
2022-09-07T20:44:59.606Z,100619.72
2022-09-07T20:47:26.093Z,100615.13
2022-09-07T20:49:52.528Z,100623.00
2022-09-07T20:52:18.788Z,100618.34
2022-09-07T20:54:45.369Z,100604.25
2022-09-07T20:57:11.737Z,100610.47
2022-09-07T20:59:38.320Z,100608.84
2022-09-07T21:02:04.715Z,100608.06
2022-09-07T21:04:31.024Z,100606.97
2022-09-07T21:06:57.279Z,100593.41
2022-09-07T21:09:23.573Z,100592.56
2022-09-07T21:11:53.024Z,100594.50
2022-09-07T21:14:21.894Z,100599.09
2022-09-07T21:16:49.181Z,100599.91
2022-09-07T21:19:15.694Z,100602.63
2022-09-07T21:21:42.216Z,100604.25
2022-09-07T21:24:08.740Z,100600.72
2022-09-07T21:26:35.249Z,100599.09
2022-09-07T21:29:01.797Z,100599.09
2022-09-07T21:31:28.574Z,100608.06
2022-09-07T21:33:55.462Z,100606.16
2022-09-07T21:36:21.798Z,100607.25
2022-09-07T21:38:48.091Z,100606.16
2022-09-07T21:41:14.390Z,100597.22
2022-09-07T21:43:40.777Z,100595.56
2022-09-07T21:46:08.143Z,100604.53
2022-09-07T21:48:34.678Z,100599.91
2022-09-07T21:51:01.015Z,100599.38
2022-09-07T21:53:27.313Z,100592.84
2022-09-07T21:55:53.613Z,100599.91
2022-09-07T21:58:19.918Z,100598.28
2022-09-07T22:00:46.251Z,100596.38
2022-09-07T22:03:12.810Z,100595.56
2022-09-07T22:05:39.088Z,100589.34
2022-09-07T22:08:05.639Z,100594.50
2022-09-07T22:10:32.295Z,100594.75
2022-09-07T22:12:58.670Z,100598.28
2022-09-07T22:15:25.053Z,100600.19
2022-09-07T22:17:51.474Z,100602.91
2022-09-07T22:20:17.766Z,100600.47
2022-09-07T22:22:44.164Z,100597.75
2022-09-07T22:25:10.589Z,100595.81
2022-09-07T22:27:36.867Z,100588.78
2022-09-07T22:30:04.146Z,100586.63
2022-09-07T22:32:30.761Z,100593.09
2022-09-07T22:34:57.018Z,100593.94
2022-09-07T22:37:23.464Z,100583.91
2022-09-07T22:39:49.869Z,100584.97
2022-09-07T22:42:16.337Z,100571.41
2022-09-07T22:44:42.794Z,100568.97
2022-09-07T22:47:09.113Z,100573.31
2022-09-07T22:49:35.997Z,100567.63
2022-09-07T22:52:02.316Z,100564.34
2022-09-07T22:54:28.651Z,100560.84
2022-09-07T22:56:55.073Z,100552.69
2022-09-07T22:59:22.099Z,100557.03
2022-09-07T23:01:48.332Z,100544.56
2022-09-07T23:04:14.887Z,100547.28
2022-09-07T23:06:41.274Z,100544.56
2022-09-07T23:09:07.687Z,100530.97
2022-09-07T23:11:34.044Z,100534.75
2022-09-07T23:14:00.409Z,100530.97
2022-09-07T23:16:27.085Z,100538.81
2022-09-07T23:18:53.558Z,100544.56
2022-09-07T23:21:21.222Z,100543.72
2022-09-07T23:23:47.490Z,100545.63
2022-09-07T23:26:13.836Z,100545.63
2022-09-07T23:28:40.236Z,100541.00
2022-09-07T23:31:06.641Z,100547.28
2022-09-07T23:33:33.166Z,100543.16
2022-09-07T23:35:59.723Z,100547.28
2022-09-07T23:38:26.066Z,100537.47
2022-09-07T23:40:52.586Z,100532.88
2022-09-07T23:43:18.994Z,100530.97
2022-09-07T23:45:45.410Z,100529.59
2022-09-07T23:48:12.234Z,100527.72
2022-09-07T23:50:38.518Z,100513.31
2022-09-07T23:53:04.979Z,100516.31
2022-09-07T23:55:31.294Z,100518.47
2022-09-07T23:57:58.131Z,100520.66
